WAT249 LPLA-LPFL

Flight info

Callsign WAT249
Flight time N/A
Altitude 43000
Route LADOX DCT OBUDA
Aircraft HDJT/L-SABDGRWY/H

Departure

Time 2026-04-21 15:53
Airport Lajes Airport (LPLA)

Arrival

Time N/A
Airport Flores Airport (LPFL)
Time Latitude Longitude Altitude Speed Heading
2026-04-21 15:33 38.75673 -27.08877 173 ft 0 kts 142°
2026-04-21 15:37 38.75674 -27.08877 173 ft 0 kts 142°
2026-04-21 15:38 38.75674 -27.08878 173 ft 0 kts 143°
2026-04-21 15:46 38.75674 -27.08879 173 ft 0 kts 143°
2026-04-21 15:46 38.75675 -27.08879 173 ft 0 kts 143°
2026-04-21 15:51 38.75672 -27.08872 173 ft 4 kts 102°
2026-04-21 15:51 38.75726 -27.08855 173 ft 11 kts 339°
2026-04-21 15:51 38.75794 -27.08897 173 ft 11 kts 350°
2026-04-21 15:52 38.75875 -27.08892 174 ft 13 kts
2026-04-21 15:52 38.75973 -27.08881 176 ft 16 kts
2026-04-21 15:52 38.76137 -27.09036 174 ft 58 kts 323°
2026-04-21 15:52 38.76628 -27.09539 222 ft 116 kts 320°
2026-04-21 15:53 38.77345 -27.10158 705 ft 131 kts 321°
2026-04-21 15:53 38.78029 -27.11009 1199 ft 150 kts 298°
2026-04-21 15:53 38.78347 -27.12345 1934 ft 165 kts 278°
2026-04-21 15:53 38.78419 -27.13820 2885 ft 164 kts 276°
2026-04-21 15:54 38.78490 -27.15320 3690 ft 177 kts 277°
2026-04-21 15:54 38.78605 -27.16946 4457 ft 185 kts 277°
2026-04-21 15:54 38.78775 -27.18571 5505 ft 181 kts 277°
2026-04-21 15:54 38.78930 -27.20183 6480 ft 188 kts 276°
2026-04-21 15:55 38.79104 -27.21931 7116 ft 208 kts 278°
2026-04-21 15:55 38.79287 -27.23795 8022 ft 206 kts 276°
2026-04-21 15:55 38.79425 -27.25538 9398 ft 188 kts 277°
2026-04-21 15:55 38.79580 -27.27209 10309 ft 189 kts 277°
2026-04-21 15:56 38.79733 -27.28901 11097 ft 193 kts 281°
2026-04-21 15:56 38.80017 -27.30580 11977 ft 193 kts 284°
2026-04-21 15:56 38.80365 -27.32264 12801 ft 196 kts 285°
2026-04-21 15:56 38.80711 -27.33934 13618 ft 196 kts 286°
2026-04-21 15:57 38.81069 -27.35626 14332 ft 197 kts 286°
2026-04-21 15:57 38.81426 -27.37330 15043 ft 199 kts 286°
2026-04-21 15:57 38.81783 -27.39054 15744 ft 200 kts 286°
2026-04-21 15:57 38.82144 -27.40788 16434 ft 202 kts 286°
2026-04-21 15:58 38.82506 -27.42535 17123 ft 203 kts 286°
2026-04-21 15:58 38.82872 -27.44296 17806 ft 205 kts 286°
2026-04-21 15:58 38.83240 -27.46072 18404 ft 207 kts 286°
2026-04-21 15:58 38.83613 -27.47868 18975 ft 209 kts 286°
2026-04-21 15:59 38.83988 -27.49679 19530 ft 211 kts 285°
2026-04-21 15:59 38.84367 -27.51511 20089 ft 213 kts 285°
2026-04-21 15:59 38.84749 -27.53357 20640 ft 215 kts 285°
2026-04-21 15:59 38.85134 -27.55222 21188 ft 217 kts 285°
2026-04-21 16:00 38.85525 -27.57109 21755 ft 219 kts 284°
2026-04-21 16:00 38.85911 -27.58986 22320 ft 222 kts 284°
2026-04-21 16:00 38.86310 -27.60909 22879 ft 224 kts 284°
2026-04-21 16:00 38.86709 -27.62857 23415 ft 226 kts 284°
2026-04-21 16:01 38.87114 -27.64818 23877 ft 228 kts 284°
2026-04-21 16:01 38.87519 -27.66792 24351 ft 230 kts 284°
2026-04-21 16:01 38.87929 -27.68781 24828 ft 231 kts 284°
2026-04-21 16:01 38.88339 -27.70784 25299 ft 233 kts 284°
2026-04-21 16:02 38.88754 -27.72799 25766 ft 234 kts 283°
2026-04-21 16:02 38.89169 -27.74829 26246 ft 236 kts 283°
2026-04-21 16:02 38.89589 -27.76877 26700 ft 238 kts 283°
2026-04-21 16:02 38.90011 -27.78940 27152 ft 240 kts 283°
2026-04-21 16:03 38.90437 -27.81020 27593 ft 242 kts 283°
2026-04-21 16:03 38.90864 -27.83119 28056 ft 243 kts 283°
2026-04-21 16:03 38.91295 -27.85230 28495 ft 245 kts 283°
2026-04-21 16:03 38.91728 -27.87356 28939 ft 247 kts 283°
2026-04-21 16:04 38.92165 -27.89503 29377 ft 250 kts 283°
2026-04-21 16:04 38.92600 -27.91640 29820 ft 251 kts 283°
2026-04-21 16:04 38.93054 -27.93844 30201 ft 253 kts 283°
2026-04-21 16:04 38.93494 -27.96002 30645 ft 252 kts 283°
2026-04-21 16:05 38.93933 -27.98172 31103 ft 251 kts 283°
2026-04-21 16:05 38.94370 -28.00337 31532 ft 250 kts 283°
2026-04-21 16:05 38.94729 -28.02523 31977 ft 249 kts 278°
2026-04-21 16:05 38.94905 -28.04734 32434 ft 249 kts 276°
2026-04-21 16:06 38.95050 -28.06945 32877 ft 248 kts 276°
2026-04-21 16:06 38.95204 -28.09146 33326 ft 247 kts 276°
2026-04-21 16:06 38.95353 -28.11350 33791 ft 247 kts 276°
2026-04-21 16:06 38.95500 -28.13550 34200 ft 247 kts 276°
2026-04-21 16:07 38.95647 -28.15745 34565 ft 247 kts 277°
2026-04-21 16:07 38.95795 -28.17946 34890 ft 248 kts 277°
2026-04-21 16:07 38.95941 -28.20151 35233 ft 248 kts 277°
2026-04-21 16:07 38.96089 -28.22362 35575 ft 248 kts 277°
2026-04-21 16:08 38.96380 -28.26761 36227 ft 249 kts 277°
2026-04-21 16:08 38.96526 -28.28982 36555 ft 249 kts 277°
2026-04-21 16:08 38.96673 -28.31205 36891 ft 250 kts 277°
2026-04-21 16:09 38.96818 -28.33431 37214 ft 250 kts 277°
2026-04-21 16:09 38.96965 -28.35658 37530 ft 251 kts 277°
2026-04-21 16:09 38.97110 -28.37892 37850 ft 251 kts 277°
2026-04-21 16:09 38.97256 -28.40126 38170 ft 251 kts 277°
2026-04-21 16:10 38.97400 -28.42362 38464 ft 251 kts 277°
2026-04-21 16:10 38.97546 -28.44608 38682 ft 253 kts 277°
2026-04-21 16:10 38.97691 -28.46869 38895 ft 254 kts 277°
2026-04-21 16:10 38.97838 -28.49143 39112 ft 256 kts 277°
2026-04-21 16:11 38.97984 -28.51429 39315 ft 257 kts 277°
2026-04-21 16:11 38.98131 -28.53720 39517 ft 258 kts 277°
2026-04-21 16:11 38.98278 -28.56031 39717 ft 260 kts 277°
2026-04-21 16:11 38.98425 -28.58345 39916 ft 261 kts 277°
2026-04-21 16:12 38.98522 -28.59886 40048 ft 262 kts 277°
2026-04-21 16:12 38.98720 -28.63018 40326 ft 263 kts 277°
2026-04-21 16:12 38.98868 -28.65376 40421 ft 268 kts 277°
2026-04-21 16:12 38.99019 -28.67769 40431 ft 276 kts 277°
2026-04-21 16:13 38.99174 -28.70267 40431 ft 285 kts 277°
2026-04-21 16:13 38.99337 -28.72855 40324 ft 298 kts 277°
2026-04-21 16:13 38.99453 -28.74692 40045 ft 311 kts 277°
2026-04-21 16:13 38.99628 -28.77548 39620 ft 329 kts 277°
2026-04-21 16:14 38.99875 -28.81551 39024 ft 346 kts 277°
2026-04-21 16:14 38.99999 -28.83631 38716 ft 343 kts 277°
2026-04-21 16:14 39.00245 -28.87600 38072 ft 330 kts 277°
2026-04-21 16:14 39.00427 -28.90514 37635 ft 324 kts 277°
2026-04-21 16:15 39.00543 -28.92421 37355 ft 323 kts 277°
2026-04-21 16:15 39.00714 -28.95304 36930 ft 323 kts 277°
2026-04-21 16:15 39.00901 -28.98189 36504 ft 325 kts 278°
2026-04-21 16:15 39.01166 -29.02075 35930 ft 327 kts 277°
2026-04-21 16:16 39.01275 -29.04011 35643 ft 328 kts 277°
2026-04-21 16:16 39.01434 -29.06940 35214 ft 328 kts 277°
2026-04-21 16:16 39.01608 -29.09862 34779 ft 328 kts 277°
2026-04-21 16:16 39.01783 -29.12780 34347 ft 327 kts 277°
2026-04-21 16:17 39.01952 -29.15701 33912 ft 327 kts 277°
2026-04-21 16:17 39.02121 -29.18618 33455 ft 327 kts 277°
2026-04-21 16:17 39.02288 -29.21542 33020 ft 328 kts 277°
2026-04-21 16:17 39.02458 -29.24438 32596 ft 330 kts 277°
2026-04-21 16:18 39.02627 -29.27387 32156 ft 332 kts 277°
2026-04-21 16:18 39.02793 -29.30360 31715 ft 333 kts 277°
2026-04-21 16:18 39.02965 -29.33343 31280 ft 335 kts 277°
2026-04-21 16:18 39.03136 -29.36339 30829 ft 337 kts 277°
2026-04-21 16:19 39.03302 -29.39348 30386 ft 338 kts 277°
2026-04-21 16:19 39.03473 -29.42368 29942 ft 340 kts 277°
2026-04-21 16:19 39.03644 -29.45407 29462 ft 341 kts 277°
2026-04-21 16:19 39.03803 -29.48457 29006 ft 342 kts 277°
2026-04-21 16:20 39.03974 -29.51522 28558 ft 344 kts 277°
2026-04-21 16:20 39.04148 -29.54567 28104 ft 345 kts 277°
2026-04-21 16:20 39.04312 -29.57636 27652 ft 343 kts 277°
2026-04-21 16:20 39.04478 -29.60686 27200 ft 340 kts 278°
2026-04-21 16:21 39.04645 -29.63705 26753 ft 337 kts 278°
2026-04-21 16:21 39.04805 -29.66711 26310 ft 335 kts 278°
2026-04-21 16:21 39.04967 -29.69698 25873 ft 335 kts 278°
2026-04-21 16:21 39.05128 -29.72674 25430 ft 332 kts 278°
2026-04-21 16:22 39.05282 -29.75628 24993 ft 330 kts 278°
2026-04-21 16:22 39.05440 -29.78568 24559 ft 328 kts 278°
2026-04-21 16:22 39.05596 -29.81496 24131 ft 327 kts 278°
2026-04-21 16:22 39.05744 -29.84379 23705 ft 326 kts 278°
2026-04-21 16:23 39.05897 -29.87275 23263 ft 324 kts 279°
2026-04-21 16:23 39.06048 -29.90162 22811 ft 321 kts 279°
2026-04-21 16:23 39.06193 -29.93025 22387 ft 320 kts 279°
2026-04-21 16:23 39.06343 -29.95878 21965 ft 318 kts 279°
2026-04-21 16:24 39.06491 -29.98709 21544 ft 316 kts 279°
2026-04-21 16:24 39.06629 -30.01525 21129 ft 314 kts 278°
2026-04-21 16:24 39.06772 -30.04329 20718 ft 313 kts 279°
2026-04-21 16:24 39.06916 -30.07119 20306 ft 312 kts 279°
2026-04-21 16:25 39.07052 -30.09893 19897 ft 310 kts 278°
2026-04-21 16:25 39.07191 -30.12652 19494 ft 308 kts 279°
2026-04-21 16:25 39.07331 -30.15403 19098 ft 307 kts 278°
2026-04-21 16:25 39.07463 -30.18136 18703 ft 306 kts 278°
2026-04-21 16:26 39.07596 -30.20822 18311 ft 304 kts 278°
2026-04-21 16:26 39.07728 -30.23527 17909 ft 302 kts 278°
2026-04-21 16:26 39.07859 -30.26218 17511 ft 300 kts 278°
2026-04-21 16:26 39.07994 -30.28897 17115 ft 299 kts 278°
2026-04-21 16:27 39.08121 -30.31561 16739 ft 298 kts 278°
2026-04-21 16:27 39.08249 -30.34223 16347 ft 298 kts 278°
2026-04-21 16:27 39.08378 -30.36877 15963 ft 296 kts 279°
2026-04-21 16:27 39.08495 -30.39495 15574 ft 291 kts 279°
2026-04-21 16:28 39.08621 -30.42096 15208 ft 290 kts 279°
2026-04-21 16:28 39.08752 -30.44691 14836 ft 290 kts 279°
2026-04-21 16:28 39.08885 -30.47275 14460 ft 289 kts 279°
2026-04-21 16:28 39.08998 -30.49858 14079 ft 289 kts 278°
2026-04-21 16:29 39.09095 -30.52430 13708 ft 286 kts 279°
2026-04-21 16:29 39.09221 -30.54981 13319 ft 285 kts 280°
2026-04-21 16:29 39.09348 -30.57527 12950 ft 285 kts 279°